Skip Navigation Links
NOAA logo - Click to go to the NOAA homepage
NOAA's National Weather Service
Alaska Aviation Weather Unit
  NWS logo - Click to go to the NWS homepage
Left Navbar Graphic     09 AKDT = 17 GMT

   
NOAA is celebrating 200 years of science, service, and stewardship. Visit the NOAA 200th celebration Web site to learn more.
USA.gov is the U.S. Government's official Web portal to all Federal, state and local government Web resources and services.
Facebook
NWS on Facebook

Important Change Regarding the AAWU Web Presence

 

Over the last several months, the AAWU has been working to navigate its webpages to a nationally supported server. Security, as well as other needs, have necessitated the change.  In the process, we have made an effort to enhance the functionality of our website, as well as some of our products. As of June 20, 2017, aawu.arh.noaa.gov will be discontinued. The new AAWU web address is weather.gov/aawu. It is now live and will run in-parallel with the old site until it is discontinued. Please send any feedback or questions regarding the new webpages to nws.ar.aawu.webauthors@noaa.gov.  Thank you for your patience during this time of transition.
AAWU Home :: Display TAF Add Bookmark
METAR PARS 271156Z AUTO 00000KT 10SM SCT041 BKN070 02/01 A2991 RMK AO2
     SLP132 70003 T00170011 10067 20006 52003 FZRANO $=

SPECI PARS 271252Z AUTO 00000KT 9SM FEW006 SCT065 OVC095 02/01 A2991
 RMK AO2 FZRANO $=

PARS 271256Z AUTO 00000KT 9SM FEW006 BKN075 OVC095 02/02 A2991 RMK
     AO2 SLP134 T00220017 FZRANO $=

METAR PARS 271356Z AUTO 00000KT 10SM -RA BKN060 OVC075 02/02 A2991 RMK
     AO2 UPB43E53RAB53 SLP134 P0000 T00220017 FZRANO $=

PARS 271441Z AUTO 00000KT 10SM -RA BKN026 OVC060 02/02 A2991 RMK
     AO2 RAE05B40UPB05E13 P0000 FZRANO $=

METAR PARS 271456Z AUTO 00000KT 10SM -RA BKN026 OVC047 03/02 A2992
 RMK AO2 RAE05B40UPB05E13 SLP135 P0000 60000 T00280022 53002 $=

SPECI PARS 271511Z AUTO 00000KT 10SM -RA SCT029 OVC047 03/02 A2992 RMK
     AO2 P0000 $=

SPECI PARS 271519Z AUTO 17004KT 10SM -RA FEW005 SCT029 OVC047 03/02
     A2992 RMK AO2 P0000 $=

METAR PARS 271556Z AUTO 20003KT 10SM -RA FEW025 OVC041 03/02 A2992 RMK
     AO2 SLP136 P0000 T00330022 $=

METAR PARS 271656Z AUTO 00000KT 10SM -RA BKN013 BKN038 OVC046 03/02
     A2992 RMK AO2 SLP136 P0000 T00330022 $=

SPECI PARS 271705Z AUTO 00000KT 10SM -RA FEW008 BKN015 OVC046 04/02
     A2992 RMK AO2 P0000 $=


NOAA's National Weather Service
Alaska Aviation Weather Unit
6930 Sand Lake Road
Anchorage, AK 99502-1845
Disclaimer
Credits
Glossary
Privacy Policy
About Us
Career Opportunities
Contact AAWU Internet Services Site last modified: April, 17th 2012